Northwest Snipe — VNVS — position and weather

sailwx.info

Track history (hours):
 
Tides and Currents Weather Stations Pressure Air Temp Water Temp Dewpoint Dewpoint Depression Visibility Wind Speed Wind Dir Waves Ship Positions

Northwest Snipe

Last reported at 2018-Apr-25 13:40 UTC. Time now 2018-Apr-25 23:48 UTC.
Position S 18°47' E 117°41'.

Type: Ship (hazmat cat A). MMSI: 503000051.

Date/timePositionNaut miles runAvg speedWind from/ knotsBaromVisibWave heightAir tempDewpointWater temp
2018-Apr-25 13:40S 18°47' E 117°41'413.2
2018-Apr-25 13:24S 18°50' E 117°39'513.1
2018-Apr-25 12:59S 18°55' E 117°36'713.2
2018-Apr-25 12:29S 19°01' E 117°33'1013.2
2018-Apr-25 11:46S 19°09' E 117°28'1313.1
2018-Apr-25 10:47S 19°20' E 117°21'413.2
2018-Apr-25 10:30S 19°23' E 117°19'713.2
2018-Apr-25 10:00S 19°29' E 117°16'713.3
2018-Apr-25 09:28S 19°35' E 117°12'713.3
2018-Apr-25 08:57S 19°41' E 117°08'613.2
2018-Apr-25 08:30S 19°46' E 117°05'713.1
2018-Apr-25 08:00S 19°52' E 117°02'713.2
2018-Apr-25 07:30S 19°58' E 116°58'713.0
2018-Apr-25 06:57S 20°04' E 116°54'613.1
2018-Apr-25 06:29S 20°09' E 116°51'713.8
2018-Apr-25 05:59S 20°15' E 116°47'612.5
2018-Apr-25 05:30S 20°20' E 116°43'611.2
2018-Apr-25 05:00S 20°26' E 116°44'611.4
2018-Apr-25 04:30S 20°31' E 116°43'4 7.4
2018-Apr-25 04:00S 20°34' E 116°45'1 2.3
2018-Apr-25 03:29S 20°35' E 116°46'0 0.0
2018-Apr-24 12:55S 20°35' E 116°46'0 0.0
2018-Apr-24 12:25S 20°35' E 116°46'0 0.0
2018-Apr-24 11:43S 20°35' E 116°46'0 0.0
2018-Apr-24 11:25S 20°35' E 116°46'0 0.0
2018-Apr-24 10:55S 20°35' E 116°46'0 0.0
2018-Apr-24 05:48S 20°35' E 116°46'0 0.1
2018-Apr-24 05:30S 20°35' E 116°46'2 3.1
2018-Apr-24 04:58S 20°34' E 116°45'4 7.7
2018-Apr-24 04:28S 20°30' E 116°44'611.6
2018-Apr-24 03:59S 20°25' E 116°44'4 9.1
2018-Apr-24 03:30S 20°20' E 116°44'5 9.7
2018-Apr-24 03:00S 20°16' E 116°46'713.0
2018-Apr-24 02:30S 20°11' E 116°51'4 8.9
2018-Apr-24 02:00S 20°07' E 116°49'713.4
2018-Apr-24 01:30S 20°07' E 116°57'611.9
2018-Apr-24 01:00S 20°04' E 117°02'814.7
2018-Apr-24 00:28S 19°57' E 117°06'816.4
2018-Apr-23 23:59S 19°50' E 117°10'816.4
2018-Apr-23 23:30S 19°43' E 117°15'612.0
2018-Apr-23 23:00S 19°37' E 117°15'917.0
2018-Apr-23 22:29S 19°45' E 117°11'1217.2
2018-Apr-23 21:48S 19°55' E 117°05'517.2
2018-Apr-23 21:30S 19°59' E 117°01'4 7.9
2018-Apr-23 21:00S 20°03' E 117°02'816.3
2018-Apr-23 20:30S 19°56' E 117°07'816.3
2018-Apr-23 20:00S 19°49' E 117°11'816.3
2018-Apr-23 19:30S 19°42' E 117°16'5 9.5
2018-Apr-23 19:00S 19°38' E 117°15'917.2
2018-Apr-23 18:30S 19°45' E 117°10'917.2
2018-Apr-23 17:58S 19°53' E 117°05'817.2
2018-Apr-23 17:30S 20°00' E 117°02'510.2
2018-Apr-23 17:00S 20°05' E 117°02'816.4
2018-Apr-23 16:30S 19°58' E 117°06'816.4
2018-Apr-23 16:00S 19°51' E 117°10'816.5
2018-Apr-23 15:30S 19°44' E 117°14'611.4
2018-Apr-23 14:59S 19°38' E 117°14'817.0
2018-Apr-23 14:30S 19°45' E 117°10'917.2
2018-Apr-23 14:00S 19°53' E 117°06'917.2
2018-Apr-23 13:30S 20°00' E 117°02'3 6.4
2018-Apr-23 13:00S 19°60' E 117°05'816.2
2018-Apr-23 12:29S 19°52' E 117°08'816.1
2018-Apr-23 11:59S 19°44' E 117°10'815.4
2018-Apr-23 11:29S 19°37' E 117°13'713.9
2018-Apr-23 11:00S 19°44' E 117°13'917.5
2018-Apr-23 10:29S 19°52' E 117°09'817.4
2018-Apr-23 10:00S 20°00' E 117°07'4 8.7
2018-Apr-23 09:30S 19°57' E 117°04'816.6
2018-Apr-23 09:00S 19°49' E 117°09'816.3
2018-Apr-23 08:29S 19°42' E 117°12'816.5
2018-Apr-23 07:59S 19°33' E 117°14'4716.8
2018-Apr-23 05:09S 18°51' E 117°37'216.9
2018-Apr-23 05:00S 18°49' E 117°38'816.5
2018-Apr-23 04:30S 18°42' E 117°42'3116.3
2018-Apr-23 02:35S 18°14' E 117°57'116.1
2018-Apr-23 02:30S 18°13' E 117°58'816.2
2018-Apr-23 02:00S 18°06' E 118°02'916.3
2018-Apr-23 01:28S 17°58' E 118°07'714.0
2018-Apr-23 00:58S 17°52' E 118°10'3412.4
2018-Apr-22 22:15S 17°22' E 118°26'415.9
2018-Apr-22 21:59S 17°18' E 118°28'50 6.6
2018-Apr-22 14:25S 18°04' E 118°07'917.4
2018-Apr-22 13:54S 18°11' E 118°02'4517.1
2018-Apr-22 11:17S 18°49' E 117°36'717.0
2018-Apr-22 10:52S 18°54' E 117°31'617.0
2018-Apr-22 10:29S 18°59' E 117°26'3 6.8
2018-Apr-22 09:59S 19°02' E 117°28'1016.4
2018-Apr-22 09:24S 18°54' E 117°33'816.4
2018-Apr-22 08:53S 18°46' E 117°38'2016.3
2018-Apr-22 07:41S 18°30' E 117°49'516.1
2018-Apr-22 07:21S 18°25' E 117°51'716.1
2018-Apr-22 06:53S 18°18' E 117°54'616.0
2018-Apr-22 06:30S 18°12' E 117°57'916.0
2018-Apr-22 05:56S 18°04' E 118°01'715.8
2018-Apr-22 05:30S 17°59' E 118°06'816.3
2018-Apr-22 05:00S 17°52' E 118°10'816.4
2018-Apr-22 04:30S 17°45' E 118°14'816.7
2018-Apr-22 04:00S 17°37' E 118°18'816.9
2018-Apr-22 03:30S 17°30' E 118°23'816.7
2018-Apr-22 03:01S 17°23' E 118°27'816.5
2018-Apr-22 02:30S 17°15' E 118°31'1316.5
2018-Apr-22 01:43S 17°04' E 118°38'316.2
2018-Apr-22 01:30S 17°01' E 118°39'816.0
2018-Apr-22 01:00S 16°54' E 118°43'815.7
2018-Apr-22 00:30S 16°47' E 118°47'713.1
2018-Apr-22 00:00S 16°41' E 118°50'2278.7
2018-Apr-22 00:00S 16°42' E 118°48'816.5 210 / 71013.010.8 29.223.231.0
2018-Apr-21 23:29S 16°35' E 118°53'7612.7
2018-Apr-21 17:30S 15°29' E 119°32'69 5.6
2018-Apr-21 05:12S 16°31' E 119°01'7516.4
2018-Apr-21 00:38S 17°36' E 118°23'514.0
2018-Apr-21 00:18S 17°40' E 118°21'516.2
2018-Apr-21 00:00S 17°36' E 118°18'19510.1 280 / 41013.210.8 30.223.431.0
2018-Apr-20 04:43S 20°30' E 116°45'0 0.0
2018-Apr-20 04:14S 20°30' E 116°45'0 0.0
2018-Apr-20 03:55S 20°30' E 116°45'0 0.0
2018-Apr-20 02:20S 20°30' E 116°45'0 0.1
2018-Apr-20 01:50S 20°30' E 116°45'0 0.0
2018-Apr-20 00:25S 20°30' E 116°45'0 0.0
2018-Apr-19 23:02S 20°30' E 116°45'0 0.1
2018-Apr-19 22:31S 20°30' E 116°45'0 0.1
2018-Apr-19 22:25S 20°30' E 116°45'0 0.0
2018-Apr-19 21:43S 20°30' E 116°45'0 0.0
2018-Apr-19 21:25S 20°30' E 116°45'0 0.0
2018-Apr-19 20:56S 20°30' E 116°45'0 0.0
2018-Apr-19 20:25S 20°30' E 116°45'0 0.1
2018-Apr-19 19:55S 20°30' E 116°45'0 0.0
2018-Apr-19 19:25S 20°30' E 116°45'0 0.0
2018-Apr-19 13:49S 20°30' E 116°45'0 0.1
2018-Apr-19 13:25S 20°30' E 116°45'0 0.0
2018-Apr-19 11:37S 20°30' E 116°45'0 0.1
2018-Apr-19 11:07S 20°30' E 116°45'0 0.1
2018-Apr-19 10:49S 20°30' E 116°45'0 0.1
2018-Apr-19 10:13S 20°30' E 116°45'0 0.0
2018-Apr-19 09:44S 20°30' E 116°45'0 0.0
2018-Apr-19 08:38S 20°30' E 116°45'0 0.1
2018-Apr-19 08:13S 20°30' E 116°45'0 0.1
2018-Apr-19 07:43S 20°30' E 116°45'0 0.1
2018-Apr-19 07:19S 20°30' E 116°45'0 0.2
2018-Apr-19 06:56S 20°30' E 116°45'0 0.1
2018-Apr-19 06:08S 20°31' E 116°45'0 0.0
2018-Apr-19 05:55S 20°31' E 116°45'0 0.0
2018-Apr-19 05:07S 20°31' E 116°45'0 0.0
2018-Apr-19 04:50S 20°31' E 116°45'0 0.0
2018-Apr-19 04:25S 20°31' E 116°45'0 0.1
2018-Apr-19 03:49S 20°31' E 116°45'0 0.0
2018-Apr-19 03:25S 20°31' E 116°45'0 0.1
2018-Apr-19 01:20S 20°30' E 116°45'0 0.1
2018-Apr-19 00:44S 20°30' E 116°45'0 0.1
2018-Apr-18 23:20S 20°30' E 116°45'0 0.3
2018-Apr-18 22:54S 20°30' E 116°45'0 0.5
2018-Apr-18 22:27S 20°30' E 116°45'1 2.8
2018-Apr-18 22:01S 20°31' E 116°44'3 6.1
2018-Apr-18 21:31S 20°34' E 116°45'2 3.1
2018-Apr-18 21:00S 20°35' E 116°46'0 0.0
2018-Apr-18 20:29S 20°35' E 116°46'0 0.0
2018-Apr-18 19:59S 20°35' E 116°46'0 0.0
2018-Apr-18 19:30S 20°35' E 116°46'0 0.0
2018-Apr-18 18:13S 20°35' E 116°46'0 0.0
2018-Apr-18 18:00S 20°35' E 116°46'0 0.0
2018-Apr-18 17:29S 20°35' E 116°46'0 0.0
2018-Apr-18 16:59S 20°35' E 116°46'0 0.0
2018-Apr-18 16:28S 20°35' E 116°46'0 0.0
2018-Apr-18 09:54S 20°35' E 116°46'0 0.0
2018-Apr-18 08:48S 20°35' E 116°46'0 0.0
2018-Apr-18 07:48S 20°35' E 116°46'0 0.0
2018-Apr-18 01:13S 20°35' E 116°46'0 0.0
2018-Apr-18 01:00S 20°35' E 116°46'1 1.8
2018-Apr-18 00:30S 20°35' E 116°45'4 7.1
2018-Apr-18 00:00S 20°32' E 116°43'611.4
2018-Apr-17 23:27S 20°25' E 116°44'511.0
2018-Apr-17 23:00S 20°20' E 116°45'5 9.5
2018-Apr-17 22:28S 20°16' E 116°46'510.4
2018-Apr-17 22:00S 20°11' E 116°48'712.5
2018-Apr-17 21:29S 20°09' E 116°55'713.1
2018-Apr-17 20:59S 20°05' E 117°00'612.7
2018-Apr-17 20:29S 19°59' E 117°03'612.6
2018-Apr-17 20:00S 19°54' E 117°07'612.4
2018-Apr-17 19:29S 19°48' E 117°10'612.3
2018-Apr-17 18:58S 19°43' E 117°13'4 6.3
2018-Apr-17 18:22S 19°45' E 117°10'3 8.8
2018-Apr-17 17:58S 19°48' E 117°12'612.6
2018-Apr-17 17:28S 19°43' E 117°15'3 7.2
2018-Apr-17 17:00S 19°40' E 117°15'713.7
2018-Apr-17 16:30S 19°46' E 117°11'713.6
2018-Apr-17 15:59S 19°52' E 117°08'713.4
2018-Apr-17 15:29S 19°58' E 117°05'613.0
2018-Apr-17 15:00S 20°03' E 117°01'4 8.0
2018-Apr-17 14:30S 20°01' E 117°05'713.5
2018-Apr-17 14:00S 19°55' E 117°08'713.6
2018-Apr-17 13:29S 19°48' E 117°11'713.7
2018-Apr-17 13:00S 19°42' E 117°14'713.2
2018-Apr-17 12:29S 19°36' E 117°15'5 9.6
2018-Apr-17 12:00S 19°38' E 117°11'712.6
2018-Apr-17 11:26S 19°45' E 117°07'512.8
2018-Apr-17 11:00S 19°49' E 117°05'612.6
2018-Apr-17 10:30S 19°55' E 117°01'612.9
2018-Apr-17 10:01S 19°58' E 116°55'712.9
2018-Apr-17 09:29S 20°02' E 116°49'713.2
2018-Apr-17 08:59S 20°06' E 116°44'612.9
2018-Apr-17 08:30S 20°10' E 116°38'613.0
2018-Apr-17 08:00S 20°15' E 116°34'7 9.7
2018-Apr-17 07:16S 20°22' E 116°32'0 0.7
2018-Apr-17 07:00S 20°22' E 116°31'0 0.0
2018-Apr-16 22:57S 20°21' E 116°32'0 0.0
2018-Apr-16 22:09S 20°21' E 116°32'0 0.3
2018-Apr-16 21:57S 20°21' E 116°32'0 0.0
2018-Apr-16 21:27S 20°21' E 116°32'0 0.1
2018-Apr-16 20:57S 20°21' E 116°31'0 0.0
2018-Apr-16 20:21S 20°21' E 116°31'0 0.0
2018-Apr-16 16:27S 20°21' E 116°32'0 0.1
2018-Apr-16 15:57S 20°21' E 116°32'0 0.1
2018-Apr-16 14:15S 20°22' E 116°32'0 0.2
2018-Apr-16 13:57S 20°22' E 116°32'0 0.0
2018-Apr-16 12:03S 20°22' E 116°32'0 0.0
2018-Apr-16 11:57S 20°22' E 116°32'0 0.1
2018-Apr-16 11:27S 20°22' E 116°32'0 0.0
2018-Apr-16 10:51S 20°22' E 116°32'0 0.1
2018-Apr-16 07:51S 20°22' E 116°31'5 0.7
2018-Apr-16 01:00S 20°17' E 116°34'4 7.6
2018-Apr-16 00:30S 20°14' E 116°35'4 7.0
2018-Apr-15 23:56S 20°10' E 116°37'3 6.6
2018-Apr-15 23:25S 20°08' E 116°40'3 7.0
2018-Apr-15 22:58S 20°06' E 116°43'3 7.1
2018-Apr-15 22:30S 20°05' E 116°46'3 7.0
2018-Apr-15 22:00S 20°03' E 116°49'3 7.0
2018-Apr-15 21:30S 20°01' E 116°52'4 7.2
2018-Apr-15 20:59S 19°58' E 116°55'4 7.2
2018-Apr-15 20:28S 19°56' E 116°58'3 6.7
2018-Apr-15 20:00S 19°54' E 117°00'3 6.8
2018-Apr-15 19:30S 19°51' E 117°02'3 6.8
2018-Apr-15 19:00S 19°48' E 117°03'4 6.6
2018-Apr-15 18:26S 19°44' E 117°05'3 6.8
2018-Apr-15 18:00S 19°42' E 117°06'4 6.7
2018-Apr-15 17:29S 19°38' E 117°08'3 6.9
2018-Apr-15 17:00S 19°35' E 117°09'4 7.3
2018-Apr-15 16:30S 19°32' E 117°11'4 7.3
2018-Apr-15 15:59S 19°29' E 117°13'4 7.2
2018-Apr-15 15:28S 19°26' E 117°15'3 7.3
2018-Apr-15 15:00S 19°23' E 117°17'4 7.5
2018-Apr-15 14:30S 19°20' E 117°19'4 7.8
2018-Apr-15 13:58S 19°16' E 117°21'  
Track history (hours):
 
Tides and Currents Weather Stations Pressure Air Temp Water Temp Dewpoint Dewpoint Depression Visibility Wind Speed Wind Dir Waves Ship Positions

Northwest Snipe

Last reported at 2018-Apr-25 13:40 UTC. Time now 2018-Apr-25 23:48 UTC.
Position S 18°47' E 117°41'.

Type: Ship (hazmat cat A). MMSI: 503000051.

Date/timePositionNaut miles runAvg speedWind from/ knotsBaromVisibWave heightAir tempDewpointWater temp
2018-Apr-25 13:40S 18°47' E 117°41'413.2
2018-Apr-25 13:24S 18°50' E 117°39'513.1
2018-Apr-25 12:59S 18°55' E 117°36'713.2
2018-Apr-25 12:29S 19°01' E 117°33'1013.2
2018-Apr-25 11:46S 19°09' E 117°28'1313.1
2018-Apr-25 10:47S 19°20' E 117°21'413.2
2018-Apr-25 10:30S 19°23' E 117°19'713.2
2018-Apr-25 10:00S 19°29' E 117°16'713.3
2018-Apr-25 09:28S 19°35' E 117°12'713.3
2018-Apr-25 08:57S 19°41' E 117°08'613.2
2018-Apr-25 08:30S 19°46' E 117°05'713.1
2018-Apr-25 08:00S 19°52' E 117°02'713.2
2018-Apr-25 07:30S 19°58' E 116°58'713.0
2018-Apr-25 06:57S 20°04' E 116°54'613.1
2018-Apr-25 06:29S 20°09' E 116°51'713.8
2018-Apr-25 05:59S 20°15' E 116°47'612.5
2018-Apr-25 05:30S 20°20' E 116°43'611.2
2018-Apr-25 05:00S 20°26' E 116°44'611.4
2018-Apr-25 04:30S 20°31' E 116°43'4 7.4
2018-Apr-25 04:00S 20°34' E 116°45'1 2.3
2018-Apr-25 03:29S 20°35' E 116°46'0 0.0
2018-Apr-24 12:55S 20°35' E 116°46'0 0.0
2018-Apr-24 12:25S 20°35' E 116°46'0 0.0
2018-Apr-24 11:43S 20°35' E 116°46'0 0.0
2018-Apr-24 11:25S 20°35' E 116°46'0 0.0
2018-Apr-24 10:55S 20°35' E 116°46'0 0.0
2018-Apr-24 05:48S 20°35' E 116°46'0 0.1
2018-Apr-24 05:30S 20°35' E 116°46'2 3.1
2018-Apr-24 04:58S 20°34' E 116°45'4 7.7
2018-Apr-24 04:28S 20°30' E 116°44'611.6
2018-Apr-24 03:59S 20°25' E 116°44'4 9.1
2018-Apr-24 03:30S 20°20' E 116°44'5 9.7
2018-Apr-24 03:00S 20°16' E 116°46'713.0
2018-Apr-24 02:30S 20°11' E 116°51'4 8.9
2018-Apr-24 02:00S 20°07' E 116°49'713.4
2018-Apr-24 01:30S 20°07' E 116°57'611.9
2018-Apr-24 01:00S 20°04' E 117°02'814.7
2018-Apr-24 00:28S 19°57' E 117°06'816.4
2018-Apr-23 23:59S 19°50' E 117°10'816.4
2018-Apr-23 23:30S 19°43' E 117°15'612.0
2018-Apr-23 23:00S 19°37' E 117°15'917.0
2018-Apr-23 22:29S 19°45' E 117°11'1217.2
2018-Apr-23 21:48S 19°55' E 117°05'517.2
2018-Apr-23 21:30S 19°59' E 117°01'4 7.9
2018-Apr-23 21:00S 20°03' E 117°02'816.3
2018-Apr-23 20:30S 19°56' E 117°07'816.3
2018-Apr-23 20:00S 19°49' E 117°11'816.3
2018-Apr-23 19:30S 19°42' E 117°16'5 9.5
2018-Apr-23 19:00S 19°38' E 117°15'917.2
2018-Apr-23 18:30S 19°45' E 117°10'917.2
2018-Apr-23 17:58S 19°53' E 117°05'817.2
2018-Apr-23 17:30S 20°00' E 117°02'510.2
2018-Apr-23 17:00S 20°05' E 117°02'816.4
2018-Apr-23 16:30S 19°58' E 117°06'816.4
2018-Apr-23 16:00S 19°51' E 117°10'816.5
2018-Apr-23 15:30S 19°44' E 117°14'611.4
2018-Apr-23 14:59S 19°38' E 117°14'817.0
2018-Apr-23 14:30S 19°45' E 117°10'917.2
2018-Apr-23 14:00S 19°53' E 117°06'917.2
2018-Apr-23 13:30S 20°00' E 117°02'3 6.4
2018-Apr-23 13:00S 19°60' E 117°05'816.2
2018-Apr-23 12:29S 19°52' E 117°08'816.1
2018-Apr-23 11:59S 19°44' E 117°10'815.4
2018-Apr-23 11:29S 19°37' E 117°13'713.9
2018-Apr-23 11:00S 19°44' E 117°13'917.5
2018-Apr-23 10:29S 19°52' E 117°09'817.4
2018-Apr-23 10:00S 20°00' E 117°07'4 8.7
2018-Apr-23 09:30S 19°57' E 117°04'816.6
2018-Apr-23 09:00S 19°49' E 117°09'816.3
2018-Apr-23 08:29S 19°42' E 117°12'816.5
2018-Apr-23 07:59S 19°33' E 117°14'4716.8
2018-Apr-23 05:09S 18°51' E 117°37'216.9
2018-Apr-23 05:00S 18°49' E 117°38'816.5
2018-Apr-23 04:30S 18°42' E 117°42'3116.3
2018-Apr-23 02:35S 18°14' E 117°57'116.1
2018-Apr-23 02:30S 18°13' E 117°58'816.2
2018-Apr-23 02:00S 18°06' E 118°02'916.3
2018-Apr-23 01:28S 17°58' E 118°07'714.0
2018-Apr-23 00:58S 17°52' E 118°10'3412.4
2018-Apr-22 22:15S 17°22' E 118°26'415.9
2018-Apr-22 21:59S 17°18' E 118°28'50 6.6
2018-Apr-22 14:25S 18°04' E 118°07'917.4
2018-Apr-22 13:54S 18°11' E 118°02'4517.1
2018-Apr-22 11:17S 18°49' E 117°36'717.0
2018-Apr-22 10:52S 18°54' E 117°31'617.0
2018-Apr-22 10:29S 18°59' E 117°26'3 6.8
2018-Apr-22 09:59S 19°02' E 117°28'1016.4
2018-Apr-22 09:24S 18°54' E 117°33'816.4
2018-Apr-22 08:53S 18°46' E 117°38'2016.3
2018-Apr-22 07:41S 18°30' E 117°49'516.1
2018-Apr-22 07:21S 18°25' E 117°51'716.1
2018-Apr-22 06:53S 18°18' E 117°54'616.0
2018-Apr-22 06:30S 18°12' E 117°57'916.0
2018-Apr-22 05:56S 18°04' E 118°01'715.8
2018-Apr-22 05:30S 17°59' E 118°06'816.3
2018-Apr-22 05:00S 17°52' E 118°10'816.4
2018-Apr-22 04:30S 17°45' E 118°14'816.7
2018-Apr-22 04:00S 17°37' E 118°18'816.9
2018-Apr-22 03:30S 17°30' E 118°23'816.7
2018-Apr-22 03:01S 17°23' E 118°27'816.5
2018-Apr-22 02:30S 17°15' E 118°31'1316.5
2018-Apr-22 01:43S 17°04' E 118°38'316.2
2018-Apr-22 01:30S 17°01' E 118°39'816.0
2018-Apr-22 01:00S 16°54' E 118°43'815.7
2018-Apr-22 00:30S 16°47' E 118°47'713.1
2018-Apr-22 00:00S 16°41' E 118°50'2278.7
2018-Apr-22 00:00S 16°42' E 118°48'816.5 210 / 71013.010.8 29.223.231.0
2018-Apr-21 23:29S 16°35' E 118°53'7612.7
2018-Apr-21 17:30S 15°29' E 119°32'69 5.6
2018-Apr-21 05:12S 16°31' E 119°01'7516.4
2018-Apr-21 00:38S 17°36' E 118°23'514.0
2018-Apr-21 00:18S 17°40' E 118°21'516.2
2018-Apr-21 00:00S 17°36' E 118°18'19510.1 280 / 41013.210.8 30.223.431.0
2018-Apr-20 04:43S 20°30' E 116°45'0 0.0
2018-Apr-20 04:14S 20°30' E 116°45'0 0.0
2018-Apr-20 03:55S 20°30' E 116°45'0 0.0
2018-Apr-20 02:20S 20°30' E 116°45'0 0.1
2018-Apr-20 01:50S 20°30' E 116°45'0 0.0
2018-Apr-20 00:25S 20°30' E 116°45'0 0.0
2018-Apr-19 23:02S 20°30' E 116°45'0 0.1
2018-Apr-19 22:31S 20°30' E 116°45'0 0.1
2018-Apr-19 22:25S 20°30' E 116°45'0 0.0
2018-Apr-19 21:43S 20°30' E 116°45'0 0.0
2018-Apr-19 21:25S 20°30' E 116°45'0 0.0
2018-Apr-19 20:56S 20°30' E 116°45'0 0.0
2018-Apr-19 20:25S 20°30' E 116°45'0 0.1
2018-Apr-19 19:55S 20°30' E 116°45'0 0.0
2018-Apr-19 19:25S 20°30' E 116°45'0 0.0
2018-Apr-19 13:49S 20°30' E 116°45'0 0.1
2018-Apr-19 13:25S 20°30' E 116°45'0 0.0
2018-Apr-19 11:37S 20°30' E 116°45'0 0.1
2018-Apr-19 11:07S 20°30' E 116°45'0 0.1
2018-Apr-19 10:49S 20°30' E 116°45'0 0.1
2018-Apr-19 10:13S 20°30' E 116°45'0 0.0
2018-Apr-19 09:44S 20°30' E 116°45'0 0.0
2018-Apr-19 08:38S 20°30' E 116°45'0 0.1
2018-Apr-19 08:13S 20°30' E 116°45'0 0.1
2018-Apr-19 07:43S 20°30' E 116°45'0 0.1
2018-Apr-19 07:19S 20°30' E 116°45'0 0.2
2018-Apr-19 06:56S 20°30' E 116°45'0 0.1
2018-Apr-19 06:08S 20°31' E 116°45'0 0.0
2018-Apr-19 05:55S 20°31' E 116°45'0 0.0
2018-Apr-19 05:07S 20°31' E 116°45'0 0.0
2018-Apr-19 04:50S 20°31' E 116°45'0 0.0
2018-Apr-19 04:25S 20°31' E 116°45'0 0.1
2018-Apr-19 03:49S 20°31' E 116°45'0 0.0
2018-Apr-19 03:25S 20°31' E 116°45'0 0.1
2018-Apr-19 01:20S 20°30' E 116°45'0 0.1
2018-Apr-19 00:44S 20°30' E 116°45'0 0.1
2018-Apr-18 23:20S 20°30' E 116°45'0 0.3
2018-Apr-18 22:54S 20°30' E 116°45'0 0.5
2018-Apr-18 22:27S 20°30' E 116°45'1 2.8
2018-Apr-18 22:01S 20°31' E 116°44'3 6.1
2018-Apr-18 21:31S 20°34' E 116°45'2 3.1
2018-Apr-18 21:00S 20°35' E 116°46'0 0.0
2018-Apr-18 20:29S 20°35' E 116°46'0 0.0
2018-Apr-18 19:59S 20°35' E 116°46'0 0.0
2018-Apr-18 19:30S 20°35' E 116°46'0 0.0
2018-Apr-18 18:13S 20°35' E 116°46'0 0.0
2018-Apr-18 18:00S 20°35' E 116°46'0 0.0
2018-Apr-18 17:29S 20°35' E 116°46'0 0.0
2018-Apr-18 16:59S 20°35' E 116°46'0 0.0
2018-Apr-18 16:28S 20°35' E 116°46'0 0.0
2018-Apr-18 09:54S 20°35' E 116°46'0 0.0
2018-Apr-18 08:48S 20°35' E 116°46'0 0.0
2018-Apr-18 07:48S 20°35' E 116°46'0 0.0
2018-Apr-18 01:13S 20°35' E 116°46'0 0.0
2018-Apr-18 01:00S 20°35' E 116°46'1 1.8
2018-Apr-18 00:30S 20°35' E 116°45'4 7.1
2018-Apr-18 00:00S 20°32' E 116°43'611.4
2018-Apr-17 23:27S 20°25' E 116°44'511.0
2018-Apr-17 23:00S 20°20' E 116°45'5 9.5
2018-Apr-17 22:28S 20°16' E 116°46'510.4
2018-Apr-17 22:00S 20°11' E 116°48'712.5
2018-Apr-17 21:29S 20°09' E 116°55'713.1
2018-Apr-17 20:59S 20°05' E 117°00'612.7
2018-Apr-17 20:29S 19°59' E 117°03'612.6
2018-Apr-17 20:00S 19°54' E 117°07'612.4
2018-Apr-17 19:29S 19°48' E 117°10'612.3
2018-Apr-17 18:58S 19°43' E 117°13'4 6.3
2018-Apr-17 18:22S 19°45' E 117°10'3 8.8
2018-Apr-17 17:58S 19°48' E 117°12'612.6
2018-Apr-17 17:28S 19°43' E 117°15'3 7.2
2018-Apr-17 17:00S 19°40' E 117°15'713.7
2018-Apr-17 16:30S 19°46' E 117°11'713.6
2018-Apr-17 15:59S 19°52' E 117°08'713.4
2018-Apr-17 15:29S 19°58' E 117°05'613.0
2018-Apr-17 15:00S 20°03' E 117°01'4 8.0
2018-Apr-17 14:30S 20°01' E 117°05'713.5
2018-Apr-17 14:00S 19°55' E 117°08'713.6
2018-Apr-17 13:29S 19°48' E 117°11'713.7
2018-Apr-17 13:00S 19°42' E 117°14'713.2
2018-Apr-17 12:29S 19°36' E 117°15'5 9.6
2018-Apr-17 12:00S 19°38' E 117°11'712.6
2018-Apr-17 11:26S 19°45' E 117°07'512.8
2018-Apr-17 11:00S 19°49' E 117°05'612.6
2018-Apr-17 10:30S 19°55' E 117°01'612.9
2018-Apr-17 10:01S 19°58' E 116°55'712.9
2018-Apr-17 09:29S 20°02' E 116°49'713.2
2018-Apr-17 08:59S 20°06' E 116°44'612.9
2018-Apr-17 08:30S 20°10' E 116°38'613.0
2018-Apr-17 08:00S 20°15' E 116°34'7 9.7
2018-Apr-17 07:16S 20°22' E 116°32'0 0.7
2018-Apr-17 07:00S 20°22' E 116°31'0 0.0
2018-Apr-16 22:57S 20°21' E 116°32'0 0.0
2018-Apr-16 22:09S 20°21' E 116°32'0 0.3
2018-Apr-16 21:57S 20°21' E 116°32'0 0.0
2018-Apr-16 21:27S 20°21' E 116°32'0 0.1
2018-Apr-16 20:57S 20°21' E 116°31'0 0.0
2018-Apr-16 20:21S 20°21' E 116°31'0 0.0
2018-Apr-16 16:27S 20°21' E 116°32'0 0.1
2018-Apr-16 15:57S 20°21' E 116°32'0 0.1
2018-Apr-16 14:15S 20°22' E 116°32'0 0.2
2018-Apr-16 13:57S 20°22' E 116°32'0 0.0
2018-Apr-16 12:03S 20°22' E 116°32'0 0.0
2018-Apr-16 11:57S 20°22' E 116°32'0 0.1
2018-Apr-16 11:27S 20°22' E 116°32'0 0.0
2018-Apr-16 10:51S 20°22' E 116°32'0 0.1
2018-Apr-16 07:51S 20°22' E 116°31'5 0.7
2018-Apr-16 01:00S 20°17' E 116°34'4 7.6
2018-Apr-16 00:30S 20°14' E 116°35'4 7.0
2018-Apr-15 23:56S 20°10' E 116°37'3 6.6
2018-Apr-15 23:25S 20°08' E 116°40'3 7.0
2018-Apr-15 22:58S 20°06' E 116°43'3 7.1
2018-Apr-15 22:30S 20°05' E 116°46'3 7.0
2018-Apr-15 22:00S 20°03' E 116°49'3 7.0
2018-Apr-15 21:30S 20°01' E 116°52'4 7.2
2018-Apr-15 20:59S 19°58' E 116°55'4 7.2
2018-Apr-15 20:28S 19°56' E 116°58'3 6.7
2018-Apr-15 20:00S 19°54' E 117°00'3 6.8
2018-Apr-15 19:30S 19°51' E 117°02'3 6.8
2018-Apr-15 19:00S 19°48' E 117°03'4 6.6
2018-Apr-15 18:26S 19°44' E 117°05'3 6.8
2018-Apr-15 18:00S 19°42' E 117°06'4 6.7
2018-Apr-15 17:29S 19°38' E 117°08'3 6.9
2018-Apr-15 17:00S 19°35' E 117°09'4 7.3
2018-Apr-15 16:30S 19°32' E 117°11'4 7.3
2018-Apr-15 15:59S 19°29' E 117°13'4 7.2
2018-Apr-15 15:28S 19°26' E 117°15'3 7.3
2018-Apr-15 15:00S 19°23' E 117°17'4 7.5
2018-Apr-15 14:30S 19°20' E 117°19'4 7.8
2018-Apr-15 13:58S 19°16' E 117°21'  

Dump ship's entire track history